Indianapolis/Eagle Creek Airpark, Indiana
Current Conditions -  °F | °C
As of 5:53 AM on Wednesday 22 Oct 2014 (Local Time) from KEYE Reporting Station
Clear Clear  
Wind Chill:   Ceiling: Unl
Heat Index:   Visibility: 10mi
Dew Point:   Wind: 5mph
Humidity: 83%   Direction: 10°N
Pressure: 30.27"   Gusts: NA
Location:  39.83°N, 86.3°W
Report Text: KEYE 220953Z AUTO 01004KT 10SM CLR 04/02 A3027 RMK AO2 SLP251 T00440017
Loading
Personal Weather Stations






























Interactive Weather Map
Tropical Storm Tracking
New forecast layout! Learn more

10-Day Weather Forecast

Advertisements
Track Severe Weather on mobile